Time;durP1;ratioP1;P1;durP2;ratioP2;P2;SDS_P1;SDS_P2;PMS_P1;PMS_P2;Temp;Humidity;BMP_temperature;BMP_pressure;BME280_temperature;BME280_humidity;BME280_pressure;Samples;Min_cycle;Max_cycle;Signal;HPM_P1;HPM_P2
2021/10/31 00:00:33;;;;;;;17.00;8.10;;;9.20;1.00;;;;;;4431336;27;655890;-78
2021/10/31 00:03:21;;;;;;;33.60;14.40;;;9.00;1.00;;;;;;4424591;27;654431;-77
2021/10/31 00:06:09;;;;;;;34.47;13.83;;;8.90;1.00;;;;;;4410262;28;656403;-78
2021/10/31 00:08:58;;;;;;;40.17;16.60;;;8.80;1.00;;;;;;4410312;27;655714;-77
2021/10/31 00:11:46;;;;;;;89.80;31.77;;;8.70;16.10;;;;;;4412103;27;655714;-78
2021/10/31 00:14:33;;;;;;;57.67;20.97;;;8.40;99.90;;;;;;4465156;27;657818;-78
2021/10/31 00:17:21;;;;;;;62.43;23.63;;;8.40;99.90;;;;;;4463952;27;657165;-77
2021/10/31 00:20:09;;;;;;;54.73;21.07;;;8.30;99.90;;;;;;4449496;27;656610;-78
2021/10/31 00:22:57;;;;;;;30.37;13.10;;;8.30;1.00;;;;;;4397907;27;656154;-77
2021/10/31 00:25:46;;;;;;;29.07;11.97;;;8.30;1.00;;;;;;4396822;28;655297;-78
2021/10/31 00:28:33;;;;;;;34.87;15.17;;;8.30;1.00;;;;;;4373734;28;655959;-77
2021/10/31 00:31:21;;;;;;;58.47;23.23;;;8.40;1.00;;;;;;4378126;28;655330;-77
2021/10/31 00:34:08;;;;;;;38.97;16.00;;;8.40;1.00;;;;;;4450069;27;656456;-78
2021/10/31 00:36:56;;;;;;;26.00;11.10;;;8.30;1.00;;;;;;4394874;28;655610;-77
2021/10/31 00:39:44;;;;;;;21.27;9.70;;;8.20;62.80;;;;;;4410988;28;656064;-78
2021/10/31 00:42:33;;;;;;;25.07;11.37;;;8.30;1.00;;;;;;4406363;27;655732;-77
2021/10/31 00:45:21;;;;;;;19.80;9.07;;;8.20;1.00;;;;;;4467406;27;655399;-78
2021/10/31 00:48:08;;;;;;;25.67;10.27;;;8.30;3.80;;;;;;4410337;28;655736;-78
2021/10/31 00:50:56;;;;;;;21.27;8.40;;;8.30;1.00;;;;;;4384951;28;655637;-77
2021/10/31 00:53:43;;;;;;;20.17;8.27;;;8.40;1.00;;;;;;4446385;27;655131;-78
2021/10/31 00:56:31;;;;;;;27.30;11.00;;;8.40;1.00;;;;;;4481271;27;654262;-77
2021/10/31 00:59:20;;;;;;;20.30;9.05;;;8.30;1.00;;;;;;4406290;28;656100;-78
2021/10/31 01:02:10;;;;;;;17.17;8.43;;;8.30;99.90;;;;;;4379412;28;655460;-78
2021/10/31 01:04:59;;;;;;;25.47;12.07;;;8.20;1.00;;;;;;4377456;28;656673;-77
2021/10/31 01:07:57;;;;;;;25.07;13.30;;;8.20;1.00;;;;;;4383823;28;655534;-77
2021/10/31 01:10:51;;;;;;;26.40;14.77;;;8.10;1.00;;;;;;4385239;28;655861;-77
2021/10/31 01:13:46;;;;;;;33.93;15.73;;;8.00;99.90;;;;;;4385064;28;655785;-77
2021/10/31 01:16:41;;;;;;;22.97;10.83;;;7.90;1.00;;;;;;4379019;28;656701;-77
2021/10/31 01:20:05;;;;;;;23.07;10.37;;;7.80;1.00;;;;;;4392739;28;655365;-77
2021/10/31 01:23:13;;;;;;;20.43;10.03;;;7.70;1.00;;;;;;4305337;28;655558;-78
2021/10/31 01:26:23;;;;;;;15.23;7.80;;;7.60;99.90;;;;;;4313584;28;656152;-78
2021/10/31 01:29:27;;;;;;;18.47;8.10;;;7.50;99.90;;;;;;4288852;28;655669;-77
2021/10/31 01:32:32;;;;;;;12.90;6.93;;;7.40;43.50;;;;;;4304957;28;656460;-78
2021/10/31 01:35:44;;;;;;;12.80;6.50;;;7.30;60.30;;;;;;4348824;28;655719;-77
2021/10/31 01:38:40;;;;;;;16.80;8.30;;;7.20;99.90;;;;;;4341196;28;655425;-77
2021/10/31 01:41:36;;;;;;;22.40;10.50;;;7.10;1.00;;;;;;4328283;28;655711;-77
2021/10/31 01:44:28;;;;;;;18.08;8.63;;;7.10;1.00;;;;;;4354834;28;656094;-77
2021/10/31 01:47:23;;;;;;;14.13;8.27;;;7.00;99.90;;;;;;4297004;28;654774;-77
2021/10/31 01:50:14;;;;;;;15.33;7.23;;;6.90;99.90;;;;;;4352995;28;655947;-77
2021/10/31 01:53:05;;;;;;;15.70;7.20;;;6.90;77.90;;;;;;4331431;28;655472;-77
2021/10/31 01:55:55;;;;;;;13.60;7.28;;;6.90;99.90;;;;;;4318382;28;657014;-77
2021/10/31 01:58:45;;;;;;;24.60;11.33;;;6.80;99.90;;;;;;4308689;28;656064;-78
2021/10/31 02:01:33;;;;;;;24.63;12.67;;;6.70;99.90;;;;;;4338054;28;656855;-77
2021/10/31 02:04:24;;;;;;;14.43;8.10;;;6.60;99.90;;;;;;4386064;27;656446;-77
2021/10/31 02:07:12;;;;;;;18.60;9.13;;;6.50;99.90;;;;;;4429035;27;655514;-77
2021/10/31 02:09:59;;;;;;;18.73;9.20;;;6.50;99.90;;;;;;4434639;27;655120;-77
2021/10/31 02:12:47;;;;;;;13.90;7.40;;;6.40;99.90;;;;;;4410958;27;655559;-77
2021/10/31 02:15:35;;;;;;;13.23;6.83;;;6.30;1.00;;;;;;4382181;28;655672;-78
2021/10/31 02:18:25;;;;;;;14.37;6.87;;;6.30;1.00;;;;;;4364108;28;655699;-77
2021/10/31 02:21:18;;;;;;;494.17;148.30;;;6.30;1.00;;;;;;4363165;28;654605;-77
2021/10/31 02:24:10;;;;;;;51.45;22.92;;;6.20;1.00;;;;;;4371301;28;657979;-77
2021/10/31 02:26:59;;;;;;;53.00;23.10;;;6.10;1.00;;;;;;4362415;28;656504;-78
2021/10/31 02:29:49;;;;;;;34.97;16.20;;;6.10;1.00;;;;;;4366533;27;655649;-77
2021/10/31 02:32:37;;;;;;;31.48;17.85;;;6.00;1.00;;;;;;4361640;28;656120;-77
2021/10/31 02:35:27;;;;;;;28.40;14.17;;;5.90;23.00;;;;;;4380551;28;655694;-77
2021/10/31 02:38:15;;;;;;;28.55;15.10;;;5.70;90.70;;;;;;4383338;28;655775;-77
2021/10/31 02:41:06;;;;;;;46.40;19.80;;;5.70;99.90;;;;;;4408926;27;657503;-77
2021/10/31 02:43:55;;;;;;;37.35;15.88;;;5.60;99.90;;;;;;4400527;27;657249;-79
2021/10/31 02:46:43;;;;;;;35.00;13.13;;;5.40;99.90;;;;;;4406020;27;658137;-79
2021/10/31 02:49:30;;;;;;;39.28;16.13;;;5.40;99.90;;;;;;4366779;28;658052;-77
2021/10/31 02:52:21;;;;;;;36.20;15.50;;;5.40;99.90;;;;;;4454125;27;657053;-78
2021/10/31 02:55:13;;;;;;;38.53;16.83;;;5.40;99.90;;;;;;4377645;28;656259;-78
2021/10/31 02:58:06;;;;;;;31.27;13.90;;;5.40;99.90;;;;;;4415561;27;656727;-78
2021/10/31 03:00:56;;;;;;;35.30;13.17;;;5.40;1.00;;;;;;4450267;28;657683;-78
2021/10/31 03:03:43;;;;;;;32.27;13.13;;;5.50;1.00;;;;;;4452307;28;656999;-79
2021/10/31 03:06:31;;;;;;;24.20;10.40;;;5.50;1.00;;;;;;4463922;27;655705;-78
2021/10/31 03:09:18;;;;;;;22.85;10.88;;;5.60;1.00;;;;;;4488150;27;656071;-79
2021/10/31 03:12:07;;;;;;;32.33;15.13;;;5.60;1.00;;;;;;4451309;28;655461;-78
2021/10/31 03:14:56;;;;;;;30.20;14.95;;;5.70;1.00;;;;;;4487260;27;655644;-79
2021/10/31 03:17:43;;;;;;;67.37;30.23;;;5.70;99.90;;;;;;4456042;27;656862;-79
2021/10/31 03:20:31;;;;;;;57.70;26.43;;;5.80;99.90;;;;;;4450217;28;656763;-78
2021/10/31 03:23:19;;;;;;;51.47;25.50;;;5.80;99.90;;;;;;4476198;27;657198;-79
2021/10/31 03:26:06;;;;;;;21.80;10.57;;;5.90;99.90;;;;;;4461824;27;656804;-78
2021/10/31 03:28:54;;;;;;;32.80;15.83;;;6.00;99.90;;;;;;4469389;27;656696;-79
2021/10/31 03:31:43;;;;;;;31.93;14.57;;;6.10;99.90;;;;;;4466876;27;656386;-79
2021/10/31 03:34:30;;;;;;;31.30;11.47;;;6.20;99.90;;;;;;4465888;27;656510;-78
2021/10/31 03:37:18;;;;;;;18.73;9.77;;;6.40;99.90;;;;;;4471518;27;657295;-79
2021/10/31 03:40:07;;;;;;;37.30;19.20;;;6.40;99.90;;;;;;4452718;27;655677;-78
2021/10/31 03:42:54;;;;;;;61.03;32.37;;;6.50;56.70;;;;;;4477100;27;656721;-79
2021/10/31 03:45:44;;;;;;;41.37;21.90;;;6.50;17.30;;;;;;4447709;28;657347;-79
2021/10/31 03:48:33;;;;;;;64.63;35.83;;;6.40;1.00;;;;;;4456033;27;656575;-79
2021/10/31 03:51:21;;;;;;;39.10;20.90;;;6.40;17.20;;;;;;4451350;28;655678;-78
2021/10/31 03:54:08;;;;;;;26.03;13.30;;;6.40;94.70;;;;;;4476573;27;656988;-79
2021/10/31 03:56:56;;;;;;;20.70;10.10;;;6.40;54.10;;;;;;4450411;27;656606;-79
2021/10/31 03:59:43;;;;;;;21.83;10.80;;;6.40;39.20;;;;;;4472310;28;658047;-79
2021/10/31 04:02:31;;;;;;;17.40;9.37;;;6.40;13.40;;;;;;4449390;28;656803;-79
2021/10/31 04:05:20;;;;;;;20.00;9.23;;;6.40;1.00;;;;;;4483255;27;655858;-79
2021/10/31 04:08:08;;;;;;;16.27;8.95;;;6.50;1.00;;;;;;4462667;27;655104;-79
2021/10/31 04:10:55;;;;;;;32.10;15.27;;;6.50;1.00;;;;;;4480676;27;655083;-79
2021/10/31 04:13:43;;;;;;;84.47;36.30;;;6.40;1.00;;;;;;4479897;27;656366;-79
2021/10/31 04:16:33;;;;;;;121.28;41.40;;;6.40;1.00;;;;;;4450831;28;655781;-79
2021/10/31 04:19:20;;;;;;;54.00;22.10;;;6.30;1.00;;;;;;4466226;27;656727;-77
2021/10/31 04:22:09;;;;;;;85.70;31.67;;;6.10;1.00;;;;;;4469852;28;656092;-79
2021/10/31 04:24:58;;;;;;;81.33;31.10;;;6.00;99.90;;;;;;4454189;27;657056;-79
2021/10/31 04:27:45;;;;;;;144.63;50.10;;;5.90;99.90;;;;;;4453800;28;656582;-78
2021/10/31 04:30:33;;;;;;;134.47;47.90;;;5.90;99.90;;;;;;4475671;27;657729;-79
2021/10/31 04:33:21;;;;;;;50.63;20.37;;;5.70;99.90;;;;;;4455599;27;657660;-78
2021/10/31 04:36:08;;;;;;;32.97;15.57;;;5.70;99.90;;;;;;4472307;27;657898;-79
2021/10/31 04:38:57;;;;;;;32.23;14.07;;;5.70;99.90;;;;;;4466216;27;657542;-78
2021/10/31 04:41:46;;;;;;;33.87;15.03;;;5.70;1.00;;;;;;4489316;27;656324;-79
2021/10/31 04:44:34;;;;;;;29.47;13.67;;;5.70;99.90;;;;;;4451856;27;657091;-79
2021/10/31 04:47:21;;;;;;;19.90;9.47;;;5.60;1.00;;;;;;4453618;27;657105;-79
2021/10/31 04:50:09;;;;;;;17.03;8.50;;;5.60;1.00;;;;;;4487098;27;654722;-79
2021/10/31 04:52:57;;;;;;;18.73;8.77;;;5.50;1.00;;;;;;4457131;27;654404;-78
2021/10/31 04:55:46;;;;;;;20.27;9.03;;;5.50;1.00;;;;;;4477053;27;653929;-79
2021/10/31 04:58:34;;;;;;;12.98;7.28;;;5.50;1.00;;;;;;4382577;28;655065;-79
2021/10/31 05:01:21;;;;;;;13.33;7.63;;;5.50;1.00;;;;;;4381408;28;654428;-78
2021/10/31 05:04:09;;;;;;;13.67;7.93;;;5.50;1.00;;;;;;4405065;28;654306;-79
2021/10/31 05:06:56;;;;;;;14.37;7.33;;;5.50;1.00;;;;;;4378992;28;654506;-78
2021/10/31 05:09:44;;;;;;;12.83;7.07;;;5.50;1.00;;;;;;4397959;28;655107;-79
2021/10/31 05:12:33;;;;;;;10.55;6.35;;;5.60;1.00;;;;;;4379073;28;654444;-79
2021/10/31 05:15:21;;;;;;;15.83;7.17;;;5.60;1.00;;;;;;4379085;28;654520;-78
2021/10/31 05:18:09;;;;;;;16.40;7.40;;;5.60;1.00;;;;;;4400837;28;654566;-79
2021/10/31 05:20:56;;;;;;;12.00;6.40;;;5.60;1.00;;;;;;4420920;27;654526;-79
2021/10/31 05:23:44;;;;;;;12.82;6.00;;;5.60;1.00;;;;;;4401003;28;655469;-79
2021/10/31 05:26:31;;;;;;;11.37;5.87;;;5.70;1.00;;;;;;4437547;27;654757;-78
2021/10/31 05:29:20;;;;;;;13.87;6.70;;;5.70;1.00;;;;;;4496293;27;655096;-79
2021/10/31 05:32:08;;;;;;;17.70;7.43;;;5.70;1.00;;;;;;4425885;27;654641;-79
2021/10/31 05:34:55;;;;;;;26.63;10.77;;;5.70;1.00;;;;;;4406375;27;654702;-78
2021/10/31 05:37:45;;;;;;;33.50;14.60;;;5.60;99.90;;;;;;4428209;27;656354;-79
2021/10/31 05:40:32;;;;;;;28.43;12.50;;;5.60;99.90;;;;;;4381783;28;657085;-79
2021/10/31 05:43:21;;;;;;;26.90;11.77;;;5.60;99.90;;;;;;4402723;27;657352;-79
2021/10/31 05:46:12;;;;;;;18.27;8.83;;;5.60;99.90;;;;;;4471610;27;657555;-79
2021/10/31 05:49:01;;;;;;;19.63;8.87;;;5.50;99.90;;;;;;4491013;27;655641;-78
2021/10/31 05:51:49;;;;;;;15.83;8.37;;;5.60;99.90;;;;;;4471966;27;655487;-79
2021/10/31 05:54:37;;;;;;;18.13;8.70;;;5.50;99.90;;;;;;4380487;28;656979;-79
2021/10/31 05:57:25;;;;;;;17.67;8.30;;;5.50;99.90;;;;;;4448408;28;655472;-79
2021/10/31 06:00:15;;;;;;;16.80;8.50;;;5.50;99.90;;;;;;4450322;28;656011;-79
2021/10/31 06:03:04;;;;;;;16.57;7.97;;;5.50;1.00;;;;;;4455791;27;656219;-79
2021/10/31 06:05:51;;;;;;;17.43;8.23;;;5.50;99.90;;;;;;4465929;27;654478;-79
2021/10/31 06:08:39;;;;;;;14.50;8.00;;;5.50;1.00;;;;;;4484132;27;655345;-79
2021/10/31 06:11:28;;;;;;;17.43;7.17;;;5.60;1.00;;;;;;4471218;27;654148;-79
2021/10/31 06:14:16;;;;;;;41.13;17.50;;;5.60;1.00;;;;;;4470998;27;654777;-79
2021/10/31 06:17:04;;;;;;;24.00;9.17;;;5.60;1.00;;;;;;4481128;27;655506;-80
2021/10/31 06:19:53;;;;;;;33.40;13.20;;;5.70;1.00;;;;;;4454767;27;654642;-79
2021/10/31 06:22:45;;;;;;;26.55;11.45;;;5.80;1.00;;;;;;4458431;27;655923;-78
2021/10/31 06:25:34;;;;;;;32.63;11.47;;;5.90;1.00;;;;;;4464350;27;656057;-79
2021/10/31 06:28:29;;;;;;;21.33;10.00;;;6.00;99.90;;;;;;4469627;27;655802;-77
2021/10/31 06:31:16;;;;;;;22.40;9.87;;;6.20;1.00;;;;;;4466678;27;656672;-79
2021/10/31 06:34:04;;;;;;;14.03;6.97;;;6.40;99.90;;;;;;4490580;27;655169;-79
2021/10/31 06:36:53;;;;;;;10.60;5.70;;;6.60;99.90;;;;;;4470032;27;655951;-79
2021/10/31 06:39:41;;;;;;;11.37;6.10;;;6.70;99.90;;;;;;4464601;27;655733;-79
2021/10/31 06:42:29;;;;;;;11.77;5.40;;;7.00;99.90;;;;;;4481509;27;655610;-79
2021/10/31 06:45:16;;;;;;;7.60;4.73;;;7.30;99.90;;;;;;4461092;27;656140;-79
2021/10/31 06:48:05;;;;;;;10.10;5.13;;;7.50;77.60;;;;;;4487309;27;654600;-80
2021/10/31 06:50:53;;;;;;;12.37;5.73;;;7.90;1.00;;;;;;4457776;27;656241;-79
2021/10/31 06:53:42;;;;;;;14.90;6.80;;;8.20;1.00;;;;;;4453510;28;655111;-80
2021/10/31 06:56:30;;;;;;;22.40;9.00;;;8.50;1.00;;;;;;4483977;27;654316;-80
2021/10/31 06:59:18;;;;;;;24.47;9.70;;;8.60;1.00;;;;;;4476970;28;655393;-79
2021/10/31 07:02:06;;;;;;;21.03;9.63;;;8.70;1.00;;;;;;4468226;27;655336;-79
2021/10/31 07:04:54;;;;;;;11.40;5.47;;;8.80;99.90;;;;;;4480036;27;654817;-79
2021/10/31 07:07:41;;;;;;;8.83;4.83;;;9.00;99.90;;;;;;4464487;27;655837;-79
2021/10/31 07:10:30;;;;;;;10.67;4.97;;;9.40;99.90;;;;;;4476692;27;654738;-79
2021/10/31 07:13:18;;;;;;;9.00;4.60;;;9.80;99.90;;;;;;4467806;27;656629;-79
2021/10/31 07:16:06;;;;;;;7.73;4.37;;;10.30;99.90;;;;;;4456362;27;655001;-79
2021/10/31 07:18:55;;;;;;;7.27;4.30;;;10.70;99.90;;;;;;4492609;27;655699;-80
2021/10/31 07:21:43;;;;;;;7.70;4.60;;;11.20;1.00;;;;;;4451400;28;657158;-80
2021/10/31 07:24:31;;;;;;;9.87;4.23;;;11.50;99.90;;;;;;4465584;27;654226;-79
2021/10/31 07:27:21;;;;;;;8.93;4.30;;;11.80;1.00;;;;;;4472262;28;655648;-80
2021/10/31 07:30:09;;;;;;;9.47;4.27;;;12.10;99.90;;;;;;4449059;28;654972;-80
2021/10/31 07:32:58;;;;;;;7.77;4.50;;;12.30;1.00;;;;;;4455335;27;655556;-79
2021/10/31 07:35:46;;;;;;;9.17;4.80;;;12.40;1.00;;;;;;4464492;28;654660;-77
2021/10/31 07:38:35;;;;;;;7.83;4.10;;;12.70;1.00;;;;;;4475216;28;654938;-79
2021/10/31 07:41:22;;;;;;;10.27;5.43;;;12.80;1.00;;;;;;4454037;27;655376;-79
2021/10/31 07:44:12;;;;;;;8.03;4.47;;;13.00;99.90;;;;;;4471886;27;655877;-79
2021/10/31 07:47:00;;;;;;;9.73;5.10;;;13.20;99.90;;;;;;4473902;28;656176;-79
2021/10/31 07:49:47;;;;;;;11.50;5.50;;;13.40;99.90;;;;;;4447358;28;656815;-80
2021/10/31 07:52:41;;;;;;;10.93;5.43;;;13.40;99.90;;;;;;4467642;27;656641;-79
2021/10/31 07:55:31;;;;;;;8.33;5.13;;;13.60;99.90;;;;;;4449210;28;657364;-79
2021/10/31 07:58:21;;;;;;;9.00;5.23;;;13.70;99.90;;;;;;4388164;28;655640;-79
2021/10/31 08:01:10;;;;;;;7.80;4.10;;;14.00;99.90;;;;;;4403079;27;655859;-76
2021/10/31 08:03:58;;;;;;;7.47;3.70;;;14.10;99.90;;;;;;4402947;27;655987;-77
2021/10/31 08:06:46;;;;;;;6.90;4.40;;;14.20;99.90;;;;;;4397369;27;655934;-76
2021/10/31 08:09:33;;;;;;;6.27;3.43;;;14.30;99.90;;;;;;4424942;27;655612;-77
2021/10/31 08:12:21;;;;;;;8.07;4.50;;;14.40;99.90;;;;;;4402244;27;656680;-77
2021/10/31 08:15:09;;;;;;;8.20;4.33;;;14.60;99.90;;;;;;4420428;27;655819;-77
2021/10/31 08:17:58;;;;;;;7.80;4.30;;;14.80;99.90;;;;;;4392518;27;656475;-77
2021/10/31 08:20:46;;;;;;;7.93;4.63;;;15.20;99.90;;;;;;4397205;27;655490;-77
2021/10/31 08:23:34;;;;;;;7.53;4.10;;;15.50;99.90;;;;;;4422868;27;656337;-77
2021/10/31 08:26:22;;;;;;;7.70;4.33;;;15.80;99.90;;;;;;4403383;27;655703;-78
2021/10/31 08:29:11;;;;;;;7.80;4.20;;;15.70;84.10;;;;;;4428530;27;655785;-78
2021/10/31 08:31:58;;;;;;;7.03;4.10;;;15.90;65.40;;;;;;4403073;27;655972;-78
2021/10/31 08:34:47;;;;;;;10.53;4.10;;;16.30;55.80;;;;;;4411044;27;655473;-78
2021/10/31 08:37:35;;;;;;;9.00;4.80;;;16.20;38.00;;;;;;4439733;27;656510;-79
2021/10/31 08:40:59;;;;;;;8.37;4.90;;;16.50;50.20;;;;;;4408050;27;656183;-77
2021/10/31 08:43:47;;;;;;;8.63;4.47;;;16.50;14.30;;;;;;4405332;27;656458;-77
2021/10/31 08:46:35;;;;;;;10.17;5.27;;;16.70;14.40;;;;;;4415161;27;655946;-77
2021/10/31 08:49:22;;;;;;;13.13;6.27;;;17.10;17.10;;;;;;4403425;27;657548;-77
2021/10/31 08:52:12;;;;;;;15.27;7.73;;;17.50;35.10;;;;;;4404002;27;656351;-76
2021/10/31 08:55:00;;;;;;;12.33;7.17;;;17.90;20.70;;;;;;4442405;27;656533;-78
2021/10/31 08:57:47;;;;;;;10.83;7.03;;;18.40;15.80;;;;;;4411819;27;657545;-77
2021/10/31 09:00:35;;;;;;;11.47;6.20;;;18.90;16.00;;;;;;4426597;27;656248;-78
2021/10/31 09:03:23;;;;;;;10.27;5.90;;;18.80;1.00;;;;;;4389061;27;657017;-78
2021/10/31 09:06:11;;;;;;;9.07;5.03;;;18.60;1.00;;;;;;4405328;27;655852;-76
2021/10/31 09:09:00;;;;;;;9.03;5.20;;;19.00;1.00;;;;;;4421983;27;656150;-77
2021/10/31 09:11:48;;;;;;;7.10;4.80;;;19.50;1.00;;;;;;4434930;27;655585;-78
2021/10/31 09:14:36;;;;;;;8.37;4.90;;;19.20;1.00;;;;;;4420089;27;654463;-78
2021/10/31 09:17:23;;;;;;;8.90;5.00;;;19.20;1.00;;;;;;4451057;27;655618;-78
2021/10/31 09:20:12;;;;;;;10.03;5.20;;;19.70;1.00;;;;;;4432478;27;654378;-78
2021/10/31 09:23:00;;;;;;;9.57;4.60;;;19.60;1.00;;;;;;4459226;27;656091;-78
2021/10/31 09:25:49;;;;;;;8.43;5.07;;;19.90;1.00;;;;;;4449000;27;655093;-78
2021/10/31 09:28:37;;;;;;;7.95;4.50;;;19.80;1.00;;;;;;4438133;27;656694;-78
2021/10/31 09:31:24;;;;;;;7.93;4.23;;;20.10;1.00;;;;;;4450507;27;654352;-78
2021/10/31 09:34:12;;;;;;;6.47;4.13;;;20.00;1.00;;;;;;4419588;27;655505;-78
2021/10/31 09:37:01;;;;;;;6.47;4.53;;;19.60;1.00;;;;;;4445822;27;654368;-79
2021/10/31 09:39:50;;;;;;;8.47;4.77;;;19.70;1.00;;;;;;4406459;27;654651;-78
2021/10/31 09:42:40;;;;;;;7.47;4.97;;;20.20;1.00;;;;;;4403553;27;654942;-77
2021/10/31 09:45:29;;;;;;;9.07;4.97;;;20.40;1.00;;;;;;4402111;27;655797;-79
2021/10/31 09:48:18;;;;;;;10.40;6.27;;;20.80;1.00;;;;;;4402373;27;654660;-77
2021/10/31 09:51:06;;;;;;;11.07;5.70;;;21.50;1.00;;;;;;4459133;27;655617;-77
2021/10/31 09:53:56;;;;;;;8.77;4.73;;;21.60;1.00;;;;;;4481670;27;655126;-78
2021/10/31 09:56:43;;;;;;;8.37;5.43;;;21.50;1.00;;;;;;4427255;27;655208;-77
2021/10/31 09:59:39;;;;;;;7.53;5.20;;;21.70;1.00;;;;;;4428810;27;654786;-77
2021/10/31 10:02:45;;;;;;;7.43;4.27;;;22.00;1.00;;;;;;4419004;27;655578;-77
2021/10/31 10:05:33;;;;;;;6.50;4.00;;;21.50;1.00;;;;;;4419191;27;655045;-77
2021/10/31 10:08:21;;;;;;;7.97;4.80;;;21.00;1.00;;;;;;4424738;27;655296;-76
2021/10/31 10:11:18;;;;;;;9.73;5.07;;;20.90;1.00;;;;;;4452219;27;655050;-78
2021/10/31 10:14:15;;;;;;;9.27;5.43;;;21.90;1.00;;;;;;4441353;27;654777;-77
2021/10/31 10:17:05;;;;;;;9.40;5.70;;;22.70;1.00;;;;;;4380749;27;654667;-77
2021/10/31 10:19:55;;;;;;;9.63;6.00;;;23.30;1.00;;;;;;4405317;27;655267;-78
2021/10/31 10:22:43;;;;;;;9.57;5.83;;;23.60;1.00;;;;;;4409867;27;655815;-77
2021/10/31 10:25:40;;;;;;;10.37;5.80;;;24.00;1.00;;;;;;4421935;27;654731;-77
2021/10/31 10:28:27;;;;;;;11.53;5.53;;;24.20;1.00;;;;;;4421738;27;656125;-78
2021/10/31 10:31:22;;;;;;;8.60;5.60;;;24.60;1.00;;;;;;4432075;27;655193;-79
2021/10/31 10:34:11;;;;;;;11.83;6.30;;;25.00;1.00;;;;;;4424613;27;654543;-78
2021/10/31 10:37:02;;;;;;;8.57;5.70;;;24.80;1.00;;;;;;4448940;27;655455;-78
2021/10/31 10:39:53;;;;;;;10.02;5.72;;;24.60;1.00;;;;;;4414773;27;655130;-78
2021/10/31 10:42:46;;;;;;;9.68;5.07;;;24.70;1.00;;;;;;4400443;27;656004;-77
2021/10/31 10:45:34;;;;;;;10.38;5.45;;;24.60;1.00;;;;;;4414356;27;654719;-78
2021/10/31 10:48:21;;;;;;;10.55;5.93;;;25.30;1.00;;;;;;4425796;27;655865;-78
2021/10/31 10:51:18;;;;;;;10.68;5.68;;;25.70;1.00;;;;;;4476866;27;655719;-79
2021/10/31 10:54:12;;;;;;;7.82;5.63;;;25.70;1.00;;;;;;4435763;27;655816;-78
2021/10/31 10:57:01;;;;;;;7.95;5.72;;;26.10;1.00;;;;;;4433194;27;654227;-78
2021/10/31 10:59:54;;;;;;;10.60;6.10;;;26.30;1.00;;;;;;4420098;27;654506;-78
2021/10/31 11:02:42;;;;;;;12.10;5.55;;;26.30;1.00;;;;;;4406732;27;655315;-79
2021/10/31 11:05:30;;;;;;;8.18;5.53;;;25.80;1.00;;;;;;4408594;27;656148;-79
2021/10/31 11:08:20;;;;;;;9.35;5.80;;;25.80;1.00;;;;;;4386758;27;655160;-79
2021/10/31 11:11:12;;;;;;;11.15;6.13;;;26.00;1.00;;;;;;4403822;27;654818;-80
2021/10/31 11:14:00;;;;;;;15.13;5.95;;;26.80;1.00;;;;;;4418821;27;655388;-79
2021/10/31 11:16:47;;;;;;;9.85;6.28;;;27.20;1.00;;;;;;4434908;27;656688;-79
2021/10/31 11:19:36;;;;;;;11.45;6.75;;;28.00;1.00;;;;;;4445447;27;654778;-78
2021/10/31 11:22:24;;;;;;;11.63;6.10;;;27.90;1.00;;;;;;4440651;27;655940;-79
2021/10/31 11:25:14;;;;;;;11.73;6.20;;;27.90;1.00;;;;;;4460526;27;655635;-80
2021/10/31 11:28:03;;;;;;;14.23;6.50;;;27.40;1.00;;;;;;4409019;27;656611;-80
2021/10/31 11:30:51;;;;;;;9.73;6.38;;;27.70;1.00;;;;;;4431046;27;655751;-80
2021/10/31 11:33:39;;;;;;;9.70;5.70;;;27.70;1.00;;;;;;4444909;27;654837;-80
2021/10/31 11:36:26;;;;;;;10.23;6.00;;;28.30;1.00;;;;;;4427254;27;654991;-80
2021/10/31 11:39:14;;;;;;;11.82;6.00;;;28.10;1.00;;;;;;4419599;27;655571;-80
2021/10/31 11:42:03;;;;;;;9.30;5.97;;;27.80;1.00;;;;;;4440555;27;657024;-80
2021/10/31 11:45:13;;;;;;;8.15;5.53;;;27.80;1.00;;;;;;4420435;27;654482;-80
2021/10/31 11:48:14;;;;;;;7.70;5.00;;;28.20;1.00;;;;;;4415404;27;654407;-80
2021/10/31 11:51:10;;;;;;;12.07;5.50;;;28.20;1.00;;;;;;4385386;27;655325;-80
2021/10/31 11:54:10;;;;;;;7.25;4.50;;;28.40;1.00;;;;;;4407324;27;655697;-80
2021/10/31 11:57:28;;;;;;;6.68;4.65;;;28.00;1.00;;;;;;4432201;27;656115;-81
2021/10/31 12:00:20;;;;;;;8.73;4.40;;;27.90;1.00;;;;;;4437682;27;655124;-79
2021/10/31 12:03:19;;;;;;;7.28;4.72;;;28.00;1.00;;;;;;4452934;27;656661;-78
2021/10/31 12:06:52;;;;;;;12.18;4.90;;;28.80;1.00;;;;;;4369213;27;655235;-78
2021/10/31 12:09:39;;;;;;;7.65;4.80;;;29.10;1.00;;;;;;4355731;28;655877;-78
2021/10/31 12:12:29;;;;;;;6.60;4.75;;;28.90;1.00;;;;;;4328805;28;656444;-78
2021/10/31 12:15:20;;;;;;;7.60;5.03;;;29.90;1.00;;;;;;4334599;28;654996;-78
2021/10/31 12:18:08;;;;;;;7.20;5.10;;;31.50;1.00;;;;;;4365353;28;656055;-78
2021/10/31 12:20:56;;;;;;;6.88;4.50;;;32.50;1.00;;;;;;4364557;28;655083;-78
2021/10/31 12:23:53;;;;;;;8.15;4.72;;;33.20;1.00;;;;;;4364370;28;657128;-78
2021/10/31 12:26:41;;;;;;;7.63;5.00;;;33.60;1.00;;;;;;4314642;28;655926;-78
2021/10/31 12:29:30;;;;;;;8.18;4.68;;;34.30;1.00;;;;;;4399087;28;656062;-78
2021/10/31 12:32:20;;;;;;;8.03;5.10;;;35.20;1.00;;;;;;4343353;28;656716;-78
2021/10/31 12:35:14;;;;;;;8.07;4.50;;;34.60;1.00;;;;;;4381328;28;656486;-78
2021/10/31 12:38:33;;;;;;;7.20;4.18;;;34.70;1.00;;;;;;4384277;28;656908;-79
2021/10/31 12:41:25;;;;;;;8.98;4.43;;;34.30;1.00;;;;;;4346008;28;656269;-78
2021/10/31 12:44:14;;;;;;;6.47;4.20;;;34.10;1.00;;;;;;4336494;28;655805;-79
2021/10/31 12:47:05;;;;;;;7.77;4.20;;;34.30;1.00;;;;;;4406464;27;656109;-78
2021/10/31 12:50:06;;;;;;;6.82;4.30;;;35.20;1.00;;;;;;4434830;27;656827;-78
2021/10/31 12:52:59;;;;;;;5.77;4.10;;;36.20;1.00;;;;;;4453688;27;656858;-79
2021/10/31 12:55:47;;;;;;;6.90;4.75;;;37.10;1.00;;;;;;4388577;27;656943;-78
2021/10/31 12:58:36;;;;;;;5.80;4.70;;;37.40;1.00;;;;;;4449440;27;655175;-77
2021/10/31 13:01:23;;;;;;;11.02;4.50;;;37.80;1.00;;;;;;4440950;27;655848;-79
2021/10/31 13:04:11;;;;;;;7.57;4.13;;;38.10;1.00;;;;;;4410766;27;656310;-78
2021/10/31 13:07:01;;;;;;;8.70;3.80;;;38.30;1.00;;;;;;4434300;27;655762;-78
2021/10/31 13:09:48;;;;;;;5.82;4.32;;;38.20;1.00;;;;;;4400286;27;655800;-78
2021/10/31 13:12:36;;;;;;;7.10;4.40;;;38.40;1.00;;;;;;4381021;28;655697;-78
2021/10/31 13:15:25;;;;;;;5.72;4.28;;;38.70;1.00;;;;;;4408551;28;656790;-79
2021/10/31 13:18:13;;;;;;;7.22;5.00;;;38.80;1.00;;;;;;4422861;28;656397;-79
2021/10/31 13:21:05;;;;;;;6.70;4.20;;;38.90;1.00;;;;;;4390578;28;656002;-79
2021/10/31 13:23:54;;;;;;;6.73;4.00;;;39.30;1.00;;;;;;4386563;28;655898;-79
2021/10/31 13:26:42;;;;;;;8.02;4.82;;;38.90;1.00;;;;;;4374414;28;655219;-79
2021/10/31 13:29:41;;;;;;;7.75;4.90;;;38.90;1.00;;;;;;4399651;28;655486;-80
2021/10/31 13:32:29;;;;;;;5.95;4.20;;;38.60;1.00;;;;;;4399249;28;656269;-79
2021/10/31 13:35:17;;;;;;;7.20;4.60;;;39.00;1.00;;;;;;4383602;28;655667;-79
2021/10/31 13:38:07;;;;;;;8.98;4.43;;;39.10;1.00;;;;;;4389969;28;657276;-78
2021/10/31 13:40:57;;;;;;;13.27;6.35;;;39.40;1.00;;;;;;4399904;28;655788;-80
2021/10/31 13:43:44;;;;;;;7.30;5.20;;;39.20;1.00;;;;;;4373430;28;657389;-79
2021/10/31 13:46:32;;;;;;;9.13;5.95;;;38.70;1.00;;;;;;4376349;28;655661;-81
2021/10/31 13:49:21;;;;;;;11.50;5.22;;;39.00;1.00;;;;;;4395678;28;655663;-81
2021/10/31 13:52:09;;;;;;;10.05;4.80;;;38.90;1.00;;;;;;4379870;28;656699;-81
2021/10/31 13:54:57;;;;;;;10.00;5.53;;;39.20;1.00;;;;;;4376211;28;656584;-82
2021/10/31 13:57:47;;;;;;;7.22;4.80;;;39.20;1.00;;;;;;4411859;28;655931;-81
2021/10/31 14:00:42;;;;;;;8.13;5.70;;;39.30;1.00;;;;;;4398622;28;655498;-81
2021/10/31 14:03:29;;;;;;;8.82;4.72;;;38.70;1.00;;;;;;4394902;28;655659;-81
2021/10/31 14:06:20;;;;;;;6.03;4.25;;;37.80;1.00;;;;;;4404467;28;655589;-82
2021/10/31 14:09:08;;;;;;;8.15;5.00;;;37.70;1.00;;;;;;4410138;28;656954;-82
2021/10/31 14:11:57;;;;;;;7.75;5.38;;;37.40;1.00;;;;;;4409920;28;655549;-82
2021/10/31 14:14:48;;;;;;;8.80;4.97;;;37.20;1.00;;;;;;4424618;28;655400;-82
2021/10/31 14:17:37;;;;;;;8.50;5.28;;;36.60;1.00;;;;;;4375040;28;656133;-81
2021/10/31 14:20:24;;;;;;;7.63;4.78;;;36.10;1.00;;;;;;4423184;28;656630;-83
2021/10/31 14:23:24;;;;;;;12.55;6.78;;;35.40;1.00;;;;;;4403635;28;656520;-82
2021/10/31 14:26:13;;;;;;;11.27;6.97;;;35.50;1.00;;;;;;4384488;27;657754;-82
2021/10/31 14:29:01;;;;;;;21.15;9.93;;;35.60;1.00;;;;;;4413228;28;656537;-80
2021/10/31 14:31:51;;;;;;;20.15;11.93;;;35.00;1.00;;;;;;4426197;28;656842;-82
2021/10/31 14:34:56;;;;;;;22.40;10.40;;;35.10;1.00;;;;;;4394922;28;657966;-82